DELMC EDLW-ZZZZ

Flight info

Callsign DELMC
Flight time N/A
Altitude
Route
Aircraft C152

Departure

Time 2026-05-04 19:35
Airport Dortmund Airport (EDLW)

Arrival

Time N/A
Airport ZZZZ
Time Latitude Longitude Altitude Speed Heading
2026-05-04 19:24 51.51163 7.60332 468 ft 0 kts 195°
2026-05-04 19:25 51.51163 7.60333 468 ft 0 kts 195°
2026-05-04 19:25 51.51161 7.60332 469 ft 5 kts 193°
2026-05-04 19:26 51.51140 7.60291 469 ft 5 kts 259°
2026-05-04 19:26 51.51155 7.60200 462 ft 12 kts 264°
2026-05-04 19:26 51.51206 7.60198 459 ft 13 kts 58°
2026-05-04 19:26 51.51252 7.60322 457 ft 13 kts 60°
2026-05-04 19:27 51.51297 7.60454 456 ft 14 kts 61°
2026-05-04 19:27 51.51353 7.60613 454 ft 17 kts 63°
2026-05-04 19:27 51.51416 7.60791 438 ft 21 kts 63°
2026-05-04 19:27 51.51489 7.60997 440 ft 21 kts 60°
2026-05-04 19:28 51.51601 7.61134 432 ft 21 kts 33°
2026-05-04 19:28 51.51670 7.61313 435 ft 18 kts 63°
2026-05-04 19:28 51.51732 7.61482 428 ft 18 kts 58°
2026-05-04 19:28 51.51797 7.61668 426 ft 19 kts 60°
2026-05-04 19:29 51.51857 7.61841 425 ft 16 kts 60°
2026-05-04 19:29 51.51913 7.62009 420 ft 18 kts 65°
2026-05-04 19:29 51.51982 7.62195 415 ft 21 kts 62°
2026-05-04 19:29 51.52059 7.62390 407 ft 19 kts 33°
2026-05-04 19:30 51.52113 7.62376 404 ft 0 kts 331°
2026-05-04 19:34 51.52152 7.62341 405 ft 14 kts 333°
2026-05-04 19:34 51.52179 7.62210 406 ft 16 kts 243°
2026-05-04 19:34 51.52048 7.61833 417 ft 63 kts 240°
2026-05-04 19:35 51.51837 7.61200 646 ft 63 kts 244°
2026-05-04 19:35 51.51690 7.60552 861 ft 66 kts 252°
2026-05-04 19:35 51.51509 7.59838 1058 ft 72 kts 240°
2026-05-04 19:35 51.51226 7.59166 1318 ft 68 kts 210°
2026-05-04 19:36 51.50792 7.59321 1528 ft 74 kts 144°
2026-05-04 19:36 51.50354 7.59949 1613 ft 92 kts 135°
2026-05-04 19:36 51.49907 7.60756 1686 ft 99 kts 130°
2026-05-04 19:36 51.49729 7.61765 1792 ft 104 kts 70°
2026-05-04 19:37 51.50171 7.62758 1767 ft 111 kts 52°
2026-05-04 19:37 51.50686 7.63694 1757 ft 112 kts 46°
2026-05-04 19:37 51.51252 7.64563 1784 ft 113 kts 45°
2026-05-04 19:37 51.51844 7.65356 1730 ft 111 kts 40°
2026-05-04 19:38 51.52524 7.65839 1553 ft 106 kts 360°
2026-05-04 19:38 51.53142 7.65333 1330 ft 106 kts 302°
2026-05-04 19:38 51.53218 7.64231 1063 ft 100 kts 244°
2026-05-04 19:38 51.52751 7.63415 790 ft 99 kts 218°
2026-05-04 19:39 51.52319 7.62610 509 ft 94 kts 239°
2026-05-04 19:39 51.52028 7.61774 411 ft 75 kts 239°
2026-05-04 19:39 51.51806 7.61145 413 ft 56 kts 238°
2026-05-04 19:39 51.51563 7.60477 551 ft 73 kts 241°
2026-05-04 19:40 51.51316 7.59774 793 ft 73 kts 239°
2026-05-04 19:40 51.51067 7.59053 1019 ft 75 kts 239°
2026-05-04 19:40 51.50694 7.58574 1279 ft 70 kts 179°
2026-05-04 19:40 51.50170 7.58704 1473 ft 76 kts 174°
2026-05-04 19:41 51.49581 7.58819 1508 ft 94 kts 171°
2026-05-04 19:41 51.48977 7.59210 1580 ft 98 kts 134°
2026-05-04 19:41 51.48895 7.60297 1541 ft 111 kts 68°
2026-05-04 19:41 51.49237 7.61350 1657 ft 107 kts 63°
2026-05-04 19:42 51.49645 7.62382 1667 ft 111 kts 58°
2026-05-04 19:42 51.50098 7.63425 1607 ft 116 kts 58°
2026-05-04 19:42 51.50575 7.64466 1577 ft 116 kts 54°
2026-05-04 19:42 51.51095 7.65456 1513 ft 117 kts 49°
2026-05-04 19:43 51.51782 7.65813 1464 ft 107 kts 343°
2026-05-04 19:43 51.52444 7.65280 1168 ft 106 kts 311°
2026-05-04 19:43 51.52733 7.64260 834 ft 98 kts 264°
2026-05-04 19:43 51.52554 7.63303 650 ft 85 kts 242°
2026-05-04 19:44 51.52282 7.62519 508 ft 75 kts 238°
2026-05-04 19:44 51.52044 7.61843 428 ft 65 kts 238°
2026-05-04 19:44 51.51832 7.61238 482 ft 64 kts 237°
2026-05-04 19:44 51.51617 7.60606 653 ft 66 kts 239°
2026-05-04 19:45 51.51401 7.59920 804 ft 72 kts 240°
2026-05-04 19:45 51.51013 7.59408 959 ft 77 kts 186°
2026-05-04 19:45 51.50494 7.59429 1160 ft 76 kts 166°
2026-05-04 19:45 51.50002 7.59728 1369 ft 76 kts 143°
2026-05-04 19:46 51.49854 7.60499 1590 ft 79 kts 78°
2026-05-04 19:46 51.50161 7.61267 1737 ft 85 kts 54°
2026-05-04 19:46 51.50531 7.61970 1945 ft 81 kts 51°
2026-05-04 19:46 51.50806 7.62431 1880 ft 36 kts 47°
2026-05-04 19:47 51.51336 7.63298 1382 ft 102 kts 48°
2026-05-04 19:47 51.51774 7.64019 1298 ft 82 kts 47°
2026-05-04 19:47 51.52169 7.64585 1216 ft 72 kts 21°
2026-05-04 19:47 51.52656 7.64546 1131 ft 70 kts 321°
2026-05-04 19:48 51.52679 7.63727 843 ft 88 kts 247°
2026-05-04 19:48 51.52402 7.62851 591 ft 88 kts 240°
2026-05-04 19:48 51.52110 7.62011 410 ft 79 kts 240°
2026-05-04 19:48 51.51857 7.61293 410 ft 82 kts 240°
2026-05-04 19:49 51.51573 7.60510 687 ft 74 kts 239°
2026-05-04 19:49 51.51306 7.59773 875 ft 81 kts 238°
2026-05-04 19:49 51.50951 7.59066 1090 ft 81 kts 202°
2026-05-04 19:49 51.50405 7.59140 1287 ft 83 kts 162°
2026-05-04 19:50 51.49877 7.59571 1477 ft 85 kts 142°
2026-05-04 19:50 51.49676 7.60390 1746 ft 83 kts 85°
2026-05-04 19:50 51.49923 7.61275 1910 ft 91 kts 63°
2026-05-04 19:50 51.50234 7.62055 2241 ft 67 kts 56°
2026-05-04 19:51 51.50484 7.62505 1750 ft 86 kts 53°
2026-05-04 19:51 51.50982 7.63667 1251 ft 108 kts 62°
2026-05-04 19:51 51.51318 7.64563 1375 ft 87 kts 61°
2026-05-04 19:51 51.51644 7.65381 1405 ft 90 kts 59°
2026-05-04 19:52 51.51975 7.66318 1346 ft 93 kts 62°
2026-05-04 19:52 51.52410 7.66769 1524 ft 83 kts
2026-05-04 19:52 51.52991 7.66467 1522 ft 92 kts 335°
2026-05-04 19:52 51.53299 7.65763 1623 ft 83 kts 260°
2026-05-04 19:53 51.53047 7.64729 1207 ft 105 kts 242°
2026-05-04 19:53 51.52700 7.63714 800 ft 102 kts 242°
2026-05-04 19:53 51.52343 7.62706 516 ft 108 kts 238°
2026-05-04 19:53 51.51981 7.61722 661 ft 96 kts 238°
2026-05-04 19:54 51.51615 7.60859 772 ft 90 kts 237°
2026-05-04 19:54 51.51319 7.60011 938 ft 84 kts 243°
2026-05-04 19:54 51.51057 7.59164 1041 ft 89 kts 239°
2026-05-04 19:54 51.50814 7.58245 1140 ft 90 kts 252°
2026-05-04 19:55 51.50433 7.57569 1266 ft 85 kts 181°
2026-05-04 19:55 51.50013 7.58226 1274 ft 97 kts 118°
2026-05-04 19:55 51.49831 7.59254 1405 ft 95 kts 83°
2026-05-04 19:55 51.50097 7.60174 1675 ft 85 kts 62°
2026-05-04 19:56 51.50411 7.60915 1939 ft 79 kts 59°
2026-05-04 19:56 51.50750 7.61668 2106 ft 85 kts 55°
2026-05-04 19:56 51.51133 7.62462 2215 ft 96 kts 52°
2026-05-04 19:56 51.51515 7.63397 2268 ft 105 kts 60°
2026-05-04 19:57 51.52079 7.64107 1551 ft 134 kts 17°
2026-05-04 19:57 51.52467 7.63362 948 ft 114 kts 272°
2026-05-04 19:57 51.52208 7.62213 536 ft 92 kts 242°
2026-05-04 19:57 51.51911 7.61442 418 ft 73 kts 240°
2026-05-04 19:58 51.51700 7.60835 419 ft 53 kts 242°
2026-05-04 19:58 51.51468 7.60204 516 ft 73 kts 241°
2026-05-04 19:58 51.51212 7.59526 762 ft 70 kts 220°
2026-05-04 19:58 51.50713 7.59479 922 ft 80 kts 172°
2026-05-04 19:59 51.50281 7.59943 1126 ft 84 kts 105°
2026-05-04 19:59 51.50355 7.60897 1294 ft 89 kts 81°
2026-05-04 19:59 51.50548 7.61796 1494 ft 92 kts 73°
2026-05-04 19:59 51.50793 7.62822 1507 ft 105 kts 71°
2026-05-04 20:00 51.51056 7.63843 1363 ft 96 kts 72°
2026-05-04 20:00 51.51310 7.64814 1241 ft 85 kts 55°
2026-05-04 20:00 51.51782 7.65010 1237 ft 79 kts 338°
2026-05-04 20:00 51.52274 7.64614 1134 ft 77 kts 323°
2026-05-04 20:01 51.52530 7.63961 895 ft 68 kts 281°
2026-05-04 20:01 51.52500 7.63219 644 ft 63 kts 248°
2026-05-04 20:01 51.52326 7.62623 481 ft 56 kts 238°
2026-05-04 20:01 51.52154 7.62140 405 ft 37 kts 233°
2026-05-04 20:02 51.52047 7.61841 404 ft 28 kts 240°
2026-05-04 20:02 51.51961 7.61590 406 ft 24 kts 245°
2026-05-04 20:02 51.51880 7.61347 410 ft 25 kts 240°
2026-05-04 20:02 51.51788 7.61100 414 ft 26 kts 241°
2026-05-04 20:03 51.51697 7.60840 417 ft 27 kts 240°
2026-05-04 20:03 51.51610 7.60624 416 ft 17 kts 212°
2026-05-04 20:03 51.51526 7.60707 421 ft 16 kts 83°
2026-05-04 20:03 51.51553 7.60873 432 ft 15 kts 73°
2026-05-04 20:04 51.51551 7.61028 432 ft 14 kts 151°
2026-05-04 20:04 51.51474 7.60958 441 ft 15 kts 221°
2026-05-04 20:04 51.51403 7.60834 442 ft 18 kts 186°
2026-05-04 20:04 51.51307 7.60776 435 ft 3 kts 172°